createdAt,value
2022-10-15T08:31:26.336Z,35.65
2022-10-15T08:32:28.364Z,16.48
2022-10-15T08:33:33.562Z,20.58
2022-10-15T08:34:35.850Z,8.65
2022-10-15T08:35:46.417Z,24.38
2022-10-15T08:36:51.080Z,37.60
2022-10-15T08:37:54.199Z,30.38
2022-10-15T08:38:59.139Z,20.48
2022-10-15T08:40:01.169Z,33.42
2022-10-15T08:41:09.221Z,19.58
2022-10-15T08:42:22.067Z,40.55
2022-10-15T08:43:28.675Z,30.70
2022-10-15T08:44:37.667Z,87.13
2022-10-15T08:45:45.236Z,57.30
2022-10-15T08:46:55.745Z,66.40
2022-10-15T08:48:01.411Z,25.60
2022-10-15T08:49:07.805Z,15.30
2022-10-15T08:50:20.438Z,10.88
2022-10-15T08:51:27.931Z,8.88
2022-10-15T08:52:42.595Z,36.08
2022-10-15T08:53:51.423Z,33.75
2022-10-15T08:54:55.511Z,29.60
2022-10-15T08:56:06.216Z,27.77
2022-10-15T08:57:18.468Z,34.47
2022-10-15T08:58:30.435Z,15.45
2022-10-15T08:59:42.713Z,23.95
2022-10-15T09:00:53.089Z,15.27
2022-10-15T09:02:03.739Z,64.53
2022-10-15T09:03:21.379Z,12.98
2022-10-15T09:04:33.829Z,25.90
2022-10-15T09:05:43.508Z,33.30
2022-10-15T09:06:49.980Z,49.85
2022-10-15T09:07:57.731Z,30.88
2022-10-15T09:09:09.280Z,53.67
2022-10-15T09:11:26.563Z,41.50
2022-10-15T09:12:41.665Z,9.15
2022-10-15T09:13:48.030Z,11.30
2022-10-15T09:14:51.003Z,27.95
2022-10-15T09:16:00.399Z,22.90
2022-10-15T09:17:17.194Z,33.78
2022-10-15T09:18:23.725Z,40.05
2022-10-15T09:19:31.927Z,17.63
2022-10-15T09:20:36.787Z,14.40
2022-10-15T09:21:41.803Z,23.13
2022-10-15T09:22:44.739Z,20.08
2022-10-15T09:23:49.780Z,27.85
2022-10-15T09:24:51.971Z,25.02
2022-10-15T09:26:05.025Z,12.68
2022-10-15T09:27:13.007Z,20.65
2022-10-15T09:28:21.431Z,14.05
2022-10-15T09:29:33.526Z,10.30
2022-10-15T09:30:42.766Z,10.20
2022-10-15T09:32:03.042Z,36.13
2022-10-15T09:33:19.361Z,8.93
2022-10-15T09:34:26.706Z,10.55
2022-10-15T09:35:36.499Z,13.98
2022-10-15T09:36:44.996Z,16.70
2022-10-15T09:38:02.149Z,32.25
2022-10-15T09:39:27.907Z,20.15
2022-10-15T09:40:49.829Z,11.35
2022-10-15T09:42:01.923Z,21.40
2022-10-15T09:43:08.973Z,29.33
2022-10-15T09:44:13.993Z,19.95
2022-10-15T09:45:21.461Z,14.73
2022-10-15T09:46:26.359Z,23.80
2022-10-15T09:47:32.913Z,40.38
2022-10-15T09:48:46.456Z,35.20
2022-10-15T09:49:51.748Z,29.48
2022-10-15T09:51:03.133Z,27.48
2022-10-15T09:52:13.080Z,17.30
2022-10-15T09:53:27.543Z,17.45
2022-10-15T09:54:46.101Z,12.15
2022-10-15T09:55:55.045Z,3.00
2022-10-15T09:56:58.963Z,20.40
2022-10-15T09:58:09.720Z,16.15
2022-10-15T09:59:19.524Z,39.20
2022-10-15T10:00:24.355Z,9.35
2022-10-15T10:01:30.580Z,36.10
2022-10-15T10:02:32.676Z,47.17
2022-10-15T10:03:40.818Z,28.08
2022-10-15T10:04:42.891Z,25.73
2022-10-15T10:05:48.597Z,47.10
2022-10-15T10:06:54.007Z,39.58
2022-10-15T10:08:12.407Z,24.45
2022-10-15T10:09:17.992Z,27.65
2022-10-15T10:10:28.318Z,4.10
2022-10-15T10:11:50.953Z,17.05
2022-10-15T10:12:57.432Z,54.10
2022-10-15T10:14:00.989Z,59.33
2022-10-15T10:15:09.901Z,14.05
2022-10-15T10:16:14.037Z,25.38
2022-10-15T10:17:22.763Z,27.38
2022-10-15T10:18:25.943Z,26.80
2022-10-15T10:19:33.435Z,39.35
2022-10-15T10:20:38.276Z,12.43
2022-10-15T10:21:46.337Z,10.73
2022-10-15T10:22:52.766Z,17.65
2022-10-15T10:23:54.931Z,26.35
2022-10-15T10:24:59.627Z,5.88
2022-10-15T10:26:03.718Z,106.22
2022-10-15T10:27:24.794Z,13.52
2022-10-15T10:28:34.851Z,24.70
2022-10-15T10:29:40.820Z,25.55
2022-10-15T10:30:54.534Z,23.65
2022-10-15T10:31:57.487Z,16.85
2022-10-15T10:33:04.010Z,22.52
2022-10-15T10:34:06.234Z,20.05
2022-10-15T10:35:24.050Z,17.35
2022-10-15T10:36:31.795Z,14.38
2022-10-15T10:37:42.675Z,21.13
2022-10-15T10:38:58.692Z,6.60
2022-10-15T10:40:03.913Z,21.98
2022-10-15T10:41:11.017Z,20.40
2022-10-15T10:42:26.462Z,13.30
2022-10-15T10:43:36.764Z,23.25
2022-10-15T10:44:47.059Z,40.00
2022-10-15T10:45:57.752Z,27.80
2022-10-15T10:47:12.332Z,19.20
2022-10-15T10:48:20.635Z,11.90
2022-10-15T10:49:33.822Z,26.67
2022-10-15T10:50:41.089Z,23.85
2022-10-15T10:51:52.575Z,77.45
2022-10-15T10:52:54.762Z,369.27
2022-10-15T10:54:01.877Z,378.63
2022-10-15T10:55:07.135Z,641.80
2022-10-15T10:56:15.686Z,714.75
2022-10-15T10:57:26.875Z,900.70
2022-10-15T10:58:36.117Z,884.05
2022-10-15T10:59:45.144Z,872.80
2022-10-15T11:00:52.508Z,815.67
2022-10-15T11:01:58.474Z,774.10
2022-10-15T11:03:03.925Z,1017.70
2022-10-15T11:04:18.672Z,50.45
2022-10-15T11:05:28.130Z,242.27
2022-10-15T11:07:00.382Z,206.68
2022-10-15T11:08:11.930Z,302.52
2022-10-15T11:09:33.574Z,20.42
2022-10-15T11:10:42.379Z,15.27
2022-10-15T11:11:55.503Z,24.25
2022-10-15T11:13:06.983Z,14.85
2022-10-15T11:14:22.330Z,117.57
2022-10-15T11:15:35.705Z,247.07
2022-10-15T11:16:48.919Z,304.88
2022-10-15T11:17:55.781Z,275.08
2022-10-15T11:19:19.703Z,213.55
2022-10-15T11:20:59.615Z,940.25
2022-10-15T11:22:38.597Z,1033.18
2022-10-15T11:24:09.052Z,1058.50
2022-10-15T11:25:22.749Z,1082.55
2022-10-15T11:26:46.166Z,1096.10
2022-10-15T11:28:08.646Z,1076.25
2022-10-15T11:29:22.561Z,988.33
2022-10-15T11:30:41.307Z,1053.47
2022-10-15T11:32:02.463Z,1057.22
2022-10-15T11:33:31.924Z,725.38
2022-10-15T11:34:53.193Z,1049.28
2022-10-15T11:36:06.167Z,778.97
2022-10-15T11:37:24.723Z,667.67
2022-10-15T11:38:39.495Z,729.05
2022-10-15T11:39:59.536Z,709.05
2022-10-15T11:41:18.432Z,1057.85
2022-10-15T11:42:28.328Z,1074.38
2022-10-15T11:43:44.213Z,1040.28
2022-10-15T11:45:12.998Z,1054.72
2022-10-15T11:46:25.417Z,1058.70
2022-10-15T11:47:41.542Z,1052.65
2022-10-15T11:49:00.566Z,1078.70
2022-10-15T11:50:14.597Z,822.05
2022-10-15T11:51:28.857Z,1051.85
2022-10-15T11:52:49.250Z,1083.53
2022-10-15T11:54:24.760Z,1081.80
2022-10-15T11:55:35.651Z,1065.57
2022-10-15T11:56:44.000Z,1067.30
2022-10-15T11:57:50.052Z,1079.05
2022-10-15T12:00:35.075Z,1053.30
2022-10-15T12:01:41.936Z,885.78
2022-10-15T12:02:47.150Z,953.33
2022-10-15T12:03:56.702Z,1089.47
2022-10-15T12:05:01.467Z,1047.30
2022-10-15T12:06:10.267Z,1076.55
2022-10-15T12:07:21.294Z,1097.93
2022-10-15T12:08:29.494Z,1085.45
2022-10-15T12:09:38.407Z,1110.18
2022-10-15T12:10:59.449Z,1109.55
2022-10-15T12:12:07.625Z,1096.35
2022-10-15T12:13:20.861Z,1104.82
2022-10-15T12:14:28.647Z,1099.93
2022-10-15T12:15:42.586Z,1113.50
2022-10-15T12:16:53.818Z,1125.82
2022-10-15T12:18:06.658Z,1141.75
2022-10-15T12:19:16.239Z,473.88
2022-10-15T12:20:24.188Z,1178.97
2022-10-15T12:21:35.874Z,1141.13
2022-10-15T12:22:43.049Z,989.47
2022-10-15T12:23:45.184Z,954.28
2022-10-15T12:24:57.651Z,448.30
2022-10-15T12:25:59.808Z,651.67
2022-10-15T12:27:18.747Z,159.73
2022-10-15T12:28:26.853Z,198.95
2022-10-15T12:29:29.243Z,185.82
2022-10-15T12:30:37.108Z,324.17
2022-10-15T12:31:50.315Z,1141.80
2022-10-15T12:32:55.654Z,670.65
2022-10-15T12:33:58.298Z,244.90
2022-10-15T12:35:05.329Z,502.17
2022-10-15T12:36:28.331Z,116.15
2022-10-15T12:37:37.267Z,451.27
2022-10-15T12:38:44.025Z,495.75
2022-10-15T12:39:52.591Z,349.85
2022-10-15T12:41:07.111Z,908.08
2022-10-15T12:42:25.058Z,997.17
2022-10-15T12:43:28.194Z,945.42
2022-10-15T12:44:35.730Z,1068.78
2022-10-15T12:45:40.729Z,1096.40
2022-10-15T12:46:45.773Z,1091.05
2022-10-15T12:47:50.477Z,1098.32
2022-10-15T12:48:58.244Z,270.65
2022-10-15T12:50:03.893Z,276.38
2022-10-15T12:51:32.918Z,251.88
2022-10-15T12:53:00.601Z,155.82
2022-10-15T12:54:02.768Z,137.20
2022-10-15T12:55:24.162Z,178.65
2022-10-15T12:56:36.905Z,104.63
2022-10-15T12:57:56.365Z,209.13
2022-10-15T12:59:01.051Z,247.23
2022-10-15T13:00:24.616Z,244.20
2022-10-15T13:01:52.516Z,318.98
2022-10-15T13:02:56.150Z,289.38
2022-10-15T13:04:03.997Z,230.00
2022-10-15T13:05:10.440Z,217.00
2022-10-15T13:06:34.933Z,241.95
2022-10-15T13:07:41.703Z,240.80
2022-10-15T13:08:48.782Z,202.57
2022-10-15T13:09:55.127Z,185.52
2022-10-15T13:10:59.582Z,207.02
2022-10-15T13:12:07.399Z,177.73
2022-10-15T13:13:17.553Z,137.80
2022-10-15T13:14:31.189Z,151.95
2022-10-15T13:15:34.950Z,145.05
2022-10-15T13:16:40.297Z,155.95
2022-10-15T13:17:47.818Z,130.57
2022-10-15T13:18:59.640Z,72.03
2022-10-15T13:21:11.400Z,74.45
2022-10-15T13:22:26.422Z,158.65
2022-10-15T13:23:31.002Z,210.38
2022-10-15T13:24:43.800Z,242.63
2022-10-15T13:25:45.944Z,238.23
2022-10-15T13:26:51.476Z,222.32
2022-10-15T13:27:56.157Z,186.30
2022-10-15T13:29:02.484Z,229.73
2022-10-15T13:30:10.428Z,42.10
2022-10-15T13:31:35.382Z,20.63
2022-10-15T13:32:46.224Z,28.88
2022-10-15T13:33:52.464Z,17.45
2022-10-15T13:34:59.970Z,20.73
2022-10-15T13:36:07.511Z,18.98
2022-10-15T13:37:22.253Z,22.23
2022-10-15T13:38:28.299Z,15.90
2022-10-15T13:39:36.452Z,17.40
2022-10-15T13:40:39.899Z,14.30
2022-10-15T13:41:45.731Z,15.93
2022-10-15T13:43:06.565Z,15.32
2022-10-15T13:44:24.389Z,19.45
2022-10-15T13:45:27.343Z,6.53
2022-10-15T13:46:36.176Z,7.72
2022-10-15T13:47:42.743Z,13.63
2022-10-15T13:48:48.459Z,21.58
2022-10-15T13:49:51.322Z,14.55
2022-10-15T13:50:58.995Z,18.38
2022-10-15T13:52:02.696Z,22.48
2022-10-15T13:53:17.103Z,12.75
2022-10-15T13:54:25.652Z,6.20
2022-10-15T13:55:33.917Z,147.13
2022-10-15T13:56:36.707Z,90.55
2022-10-15T13:57:47.326Z,29.70
2022-10-15T13:58:57.709Z,57.35
2022-10-15T14:00:04.971Z,42.50
2022-10-15T14:01:13.421Z,21.90
2022-10-15T14:02:19.573Z,62.03
2022-10-15T14:03:24.538Z,27.95
2022-10-15T14:08:25.276Z,10.88
2022-10-15T14:09:35.145Z,15.77
2022-10-15T14:10:38.480Z,33.42
2022-10-15T14:11:45.084Z,26.90
2022-10-15T14:12:52.277Z,31.27
2022-10-15T14:14:02.458Z,43.88
2022-10-15T14:15:34.905Z,53.35
2022-10-15T14:16:49.067Z,49.67
2022-10-15T14:17:52.500Z,41.72
2022-10-15T14:19:01.681Z,78.05
2022-10-15T14:20:27.334Z,25.38
2022-10-15T14:21:33.094Z,56.28
2022-10-15T14:22:36.397Z,63.28
2022-10-15T14:23:43.484Z,40.38
2022-10-15T14:24:53.085Z,53.42
2022-10-15T14:25:58.595Z,62.90
2022-10-15T14:27:11.236Z,55.40
2022-10-15T14:28:21.048Z,37.72
2022-10-15T14:29:30.574Z,39.92
2022-10-15T14:30:36.744Z,50.53
2022-10-15T14:31:48.404Z,30.48
2022-10-15T14:32:53.116Z,17.05
2022-10-15T14:34:02.787Z,8.32
2022-10-15T14:35:10.083Z,6.82
2022-10-15T14:36:28.867Z,17.75
2022-10-15T14:37:41.408Z,20.65
2022-10-15T14:38:47.469Z,44.75
2022-10-15T14:39:50.517Z,18.38
2022-10-15T14:41:07.165Z,43.15
2022-10-15T14:42:31.439Z,28.23
2022-10-15T14:43:35.665Z,28.98
2022-10-15T14:44:50.820Z,46.45
2022-10-15T14:45:58.617Z,38.25
2022-10-15T14:47:06.566Z,39.88
2022-10-15T14:48:11.450Z,49.45
2022-10-15T14:49:30.365Z,30.60
2022-10-15T14:50:35.818Z,21.42
2022-10-15T14:51:42.014Z,35.10
2022-10-15T14:52:50.537Z,34.13
2022-10-15T14:53:55.477Z,46.08
2022-10-15T14:55:13.133Z,25.67
2022-10-15T14:56:20.730Z,82.65
2022-10-15T14:57:34.717Z,260.35
2022-10-15T14:58:52.367Z,407.90
2022-10-15T15:00:04.402Z,485.33
2022-10-15T15:01:08.785Z,377.25
2022-10-15T15:02:20.145Z,97.95
2022-10-15T15:03:30.635Z,195.23
2022-10-15T15:04:52.659Z,51.67
2022-10-15T15:07:23.586Z,202.10
2022-10-15T15:08:30.297Z,154.18
2022-10-15T15:09:36.532Z,57.88
2022-10-15T15:10:43.248Z,26.35
2022-10-15T15:11:51.082Z,76.03
2022-10-15T15:13:04.790Z,77.95
2022-10-15T15:14:25.795Z,63.28
2022-10-15T15:15:30.535Z,36.25
2022-10-15T15:16:35.209Z,62.72
2022-10-15T15:17:37.349Z,21.35
2022-10-15T15:18:49.072Z,32.67
2022-10-15T15:19:54.923Z,29.92
2022-10-15T15:21:04.703Z,13.52
2022-10-15T15:22:09.917Z,10.20
2022-10-15T15:23:30.060Z,19.08
2022-10-15T15:24:33.507Z,15.23
2022-10-15T15:25:45.835Z,24.42
2022-10-15T15:26:48.774Z,38.28
2022-10-15T15:27:56.409Z,22.70
2022-10-15T15:29:02.563Z,13.98
2022-10-15T15:30:19.740Z,27.33
2022-10-15T15:31:29.414Z,38.03
2022-10-15T15:32:35.305Z,16.83
2022-10-15T15:33:41.627Z,5.75
2022-10-15T15:34:48.563Z,10.40
2022-10-15T15:35:59.686Z,28.63
2022-10-15T15:37:03.374Z,32.58
2022-10-15T15:38:11.496Z,29.15
2022-10-15T15:39:14.578Z,35.30
2022-10-15T15:40:20.835Z,43.97
2022-10-15T15:41:27.632Z,56.60
2022-10-15T15:42:33.600Z,54.28
2022-10-15T15:43:39.413Z,63.20
2022-10-15T15:44:52.133Z,41.78
2022-10-15T15:45:57.088Z,58.97
2022-10-15T15:47:03.429Z,56.65
2022-10-15T15:48:09.312Z,26.52
2022-10-15T15:49:12.840Z,25.00
2022-10-15T15:50:21.529Z,41.67
2022-10-15T15:51:28.326Z,58.80
2022-10-15T15:52:38.787Z,40.08
2022-10-15T15:53:46.640Z,172.32
2022-10-15T15:54:55.284Z,187.25
2022-10-15T15:56:04.283Z,27.98
2022-10-15T15:57:11.547Z,68.30
2022-10-15T15:58:18.057Z,50.60
2022-10-15T15:59:25.514Z,33.78
2022-10-15T16:00:31.359Z,64.90
2022-10-15T16:01:37.123Z,27.17
2022-10-15T16:02:46.924Z,75.00
2022-10-15T16:03:52.622Z,83.35
2022-10-15T16:05:04.801Z,47.65
2022-10-15T16:06:09.307Z,29.30
2022-10-15T16:07:18.994Z,23.65
2022-10-15T16:08:26.103Z,7.60
2022-10-15T16:09:37.218Z,23.35
2022-10-15T16:10:41.010Z,6.30
2022-10-15T16:11:51.970Z,33.67
2022-10-15T16:12:56.998Z,41.45
2022-10-15T16:14:09.495Z,34.22
2022-10-15T16:15:14.926Z,23.38
2022-10-15T16:16:24.894Z,34.22
2022-10-15T16:17:27.825Z,24.70
2022-10-15T16:18:37.821Z,19.90
2022-10-15T16:19:48.088Z,24.92
2022-10-15T16:20:51.952Z,15.25
2022-10-15T16:22:04.092Z,32.90
2022-10-15T16:23:06.566Z,32.83
2022-10-15T16:24:13.115Z,27.15
2022-10-15T16:25:16.655Z,20.95
2022-10-15T16:26:25.613Z,12.00
2022-10-15T16:27:35.757Z,19.08
2022-10-15T16:28:39.166Z,35.17
2022-10-15T16:29:51.288Z,18.98
2022-10-15T16:30:56.747Z,33.50
2022-10-15T16:32:03.121Z,32.05
2022-10-15T16:34:17.719Z,25.23
2022-10-15T16:35:23.167Z,34.33
2022-10-15T16:36:30.000Z,19.58
2022-10-15T16:37:36.524Z,19.65
2022-10-15T16:38:48.597Z,19.05
2022-10-15T16:39:51.994Z,16.95
2022-10-15T16:41:02.067Z,17.20
2022-10-15T16:42:06.123Z,9.00
2022-10-15T16:43:15.295Z,11.13
2022-10-15T16:44:18.360Z,13.57
2022-10-15T16:45:23.855Z,13.45
2022-10-15T16:46:30.654Z,33.17
2022-10-15T16:47:33.945Z,20.70
2022-10-15T16:48:39.698Z,19.73
2022-10-15T16:49:46.679Z,42.28
2022-10-15T16:51:02.503Z,53.08
2022-10-15T16:52:09.939Z,69.70
2022-10-15T16:53:17.901Z,94.07
2022-10-15T16:54:26.412Z,103.35
2022-10-15T16:55:32.398Z,116.45
2022-10-15T16:56:38.498Z,167.27
2022-10-15T16:57:42.390Z,206.70
2022-10-15T16:58:48.228Z,215.60
2022-10-15T16:59:51.921Z,233.43
2022-10-15T17:01:08.799Z,158.85
2022-10-15T17:02:12.604Z,198.32
2022-10-15T17:03:18.136Z,102.18
2022-10-15T17:04:23.722Z,152.02
2022-10-15T17:05:29.524Z,83.75
2022-10-15T17:06:37.177Z,146.10
2022-10-15T17:07:41.285Z,185.82
2022-10-15T17:08:52.070Z,173.73
2022-10-15T17:09:55.312Z,231.07
2022-10-15T17:11:12.581Z,256.30
2022-10-15T17:12:23.955Z,331.10
2022-10-15T17:14:34.095Z,58.63
2022-10-15T17:15:37.324Z,426.38
2022-10-15T17:16:45.011Z,383.58
2022-10-15T17:17:50.403Z,322.52
2022-10-15T17:18:57.883Z,342.00
2022-10-15T17:20:21.591Z,70.88
2022-10-15T17:21:46.963Z,44.72
2022-10-15T17:22:52.077Z,108.57
2022-10-15T17:24:03.548Z,299.10
2022-10-15T17:25:11.171Z,333.13
2022-10-15T17:26:19.663Z,351.95
2022-10-15T17:27:27.038Z,252.30
2022-10-15T17:28:32.824Z,401.45
2022-10-15T17:29:40.178Z,421.63
2022-10-15T17:30:43.697Z,47.72
2022-10-15T17:31:50.826Z,32.80
2022-10-15T17:32:54.562Z,36.63
2022-10-15T17:34:03.975Z,43.05
2022-10-15T17:35:10.007Z,47.00
2022-10-15T17:36:20.078Z,50.67
2022-10-15T17:37:26.985Z,43.28
2022-10-15T17:38:37.296Z,166.45
2022-10-15T17:39:44.962Z,396.60
2022-10-15T17:40:54.467Z,424.10
2022-10-15T17:42:03.731Z,457.30
2022-10-15T17:43:14.062Z,413.83
2022-10-15T17:44:25.892Z,526.67
2022-10-15T17:45:30.353Z,452.08
2022-10-15T17:46:42.977Z,202.73
2022-10-15T17:47:47.106Z,363.33
2022-10-15T17:49:09.053Z,502.10
2022-10-15T17:50:15.401Z,560.72
2022-10-15T17:51:22.364Z,575.97
2022-10-15T17:52:32.919Z,570.85
2022-10-15T17:53:35.345Z,594.70
2022-10-15T17:54:40.063Z,635.58
2022-10-15T17:55:42.884Z,649.65
2022-10-15T17:56:49.087Z,673.53
2022-10-15T17:57:51.480Z,646.08
2022-10-15T17:58:56.984Z,464.15
2022-10-15T17:59:59.191Z,535.50
2022-10-15T18:01:04.187Z,533.72
2022-10-15T18:02:10.112Z,605.78
2022-10-15T18:03:13.283Z,589.22
2022-10-15T18:04:18.042Z,591.10
2022-10-15T18:05:20.288Z,214.60
2022-10-15T18:06:27.062Z,20.38
2022-10-15T18:07:32.147Z,9.32
2022-10-15T18:08:37.466Z,14.93
2022-10-15T18:09:45.283Z,48.22
2022-10-15T18:10:56.186Z,39.78
2022-10-15T18:12:05.847Z,32.08
2022-10-15T18:13:09.452Z,52.15
2022-10-15T18:14:16.296Z,17.80
2022-10-15T18:15:26.925Z,22.40
2022-10-15T18:16:44.671Z,28.48
2022-10-15T18:17:46.880Z,11.88
2022-10-15T18:18:52.244Z,23.45
2022-10-15T18:19:57.178Z,21.70
2022-10-15T18:21:03.754Z,12.05
2022-10-15T18:22:09.945Z,9.07
2022-10-15T18:23:18.679Z,19.38
2022-10-15T18:24:22.261Z,33.35
2022-10-15T18:25:27.074Z,64.68
2022-10-15T18:26:29.456Z,109.43
2022-10-15T18:27:38.286Z,136.38
2022-10-15T18:28:42.844Z,158.25
2022-10-15T18:29:48.147Z,224.30
2022-10-15T18:30:50.411Z,184.43
2022-10-15T18:31:58.208Z,251.60
2022-10-15T18:33:00.572Z,229.20
2022-10-15T18:34:05.533Z,240.77
2022-10-15T18:35:08.457Z,245.85
2022-10-15T18:36:16.540Z,288.63
2022-10-15T18:37:21.495Z,350.50
2022-10-15T18:38:26.239Z,261.20
2022-10-15T18:39:31.033Z,222.63
2022-10-15T18:40:36.225Z,315.23
2022-10-15T18:43:09.487Z,269.65
2022-10-15T18:44:16.740Z,299.88
2022-10-15T18:45:21.663Z,289.13
2022-10-15T18:46:24.528Z,448.00
2022-10-15T18:47:29.559Z,391.60
2022-10-15T18:48:32.937Z,423.48
2022-10-15T18:49:38.878Z,475.58
2022-10-15T18:50:42.613Z,452.30
2022-10-15T18:51:51.831Z,510.92
2022-10-15T18:52:54.293Z,451.40
2022-10-15T18:54:01.986Z,508.00
2022-10-15T18:55:05.032Z,524.88
2022-10-15T18:56:13.014Z,433.58
2022-10-15T18:57:18.423Z,541.03
2022-10-15T18:58:20.619Z,494.98
2022-10-15T18:59:25.528Z,439.08
2022-10-15T19:00:28.597Z,417.17
2022-10-15T19:01:35.546Z,495.70
2022-10-15T19:02:37.919Z,364.58
2022-10-15T19:03:42.687Z,444.13
2022-10-15T19:04:44.827Z,493.83
2022-10-15T19:05:51.146Z,351.75
2022-10-15T19:06:54.734Z,329.30
2022-10-15T19:07:59.393Z,334.23
2022-10-15T19:09:07.366Z,476.38
2022-10-15T19:10:15.272Z,625.72
2022-10-15T19:11:20.379Z,675.83
2022-10-15T19:12:26.344Z,656.88
2022-10-15T19:13:28.718Z,667.13
2022-10-15T19:14:33.557Z,649.67
2022-10-15T19:15:36.365Z,663.25
2022-10-15T19:16:43.568Z,687.72
2022-10-15T19:17:47.154Z,510.80
2022-10-15T19:18:53.617Z,604.95
2022-10-15T19:19:59.084Z,717.33
2022-10-15T19:21:06.799Z,744.05
2022-10-15T19:22:12.694Z,728.58
2022-10-15T19:23:15.783Z,729.47
2022-10-15T19:24:25.659Z,650.67
2022-10-15T19:25:28.027Z,736.42
2022-10-15T19:26:33.418Z,703.47
2022-10-15T19:27:36.370Z,693.72
2022-10-15T19:28:42.626Z,738.72
2022-10-15T19:29:44.944Z,664.20
2022-10-15T19:30:58.078Z,664.78
2022-10-15T19:32:04.151Z,675.30
2022-10-15T19:33:08.717Z,683.47
2022-10-15T19:34:16.374Z,680.85
2022-10-15T19:35:20.970Z,588.65
2022-10-15T19:36:28.393Z,629.53
2022-10-15T19:37:43.963Z,503.98
2022-10-15T19:38:53.055Z,644.50
2022-10-15T19:43:50.060Z,634.03
2022-10-15T19:44:55.497Z,656.05
